Time;durP1;ratioP1;P1;durP2;ratioP2;P2;SDS_P1;SDS_P2;PMS_P1;PMS_P2;Temp;Humidity;BMP_temperature;BMP_pressure;BME280_temperature;BME280_humidity;BME280_pressure;Samples;Min_cycle;Max_cycle;Signal;HPM_P1;HPM_P2
2023/12/05 00:00:50;;;;;;;46.87;34.13;;;;;;;0.71;100.00;99621.59;5042249;28;20104;-60
2023/12/05 00:03:15;;;;;;;47.17;35.47;;;;;;;0.72;100.00;99619.91;5029628;28;20083;-59
2023/12/05 00:05:41;;;;;;;47.63;34.30;;;;;;;0.74;100.00;99610.66;5029304;28;20537;-60
2023/12/05 00:08:06;;;;;;;47.67;34.43;;;;;;;0.73;100.00;99618.25;5049836;28;20036;-61
2023/12/05 00:10:32;;;;;;;50.47;35.03;;;;;;;0.74;100.00;99620.88;5045997;28;20039;-60
2023/12/05 00:12:58;;;;;;;47.27;35.77;;;;;;;0.75;100.00;99619.22;5047680;28;20102;-60
2023/12/05 00:15:23;;;;;;;47.07;34.40;;;;;;;0.81;100.00;99612.75;5046844;28;20436;-60
2023/12/05 00:17:48;;;;;;;45.80;34.03;;;;;;;0.78;100.00;99611.72;5049094;28;20020;-59
2023/12/05 00:20:14;;;;;;;45.80;35.43;;;;;;;0.80;100.00;99616.09;5051600;28;20429;-60
2023/12/05 00:22:39;;;;;;;50.00;35.97;;;;;;;0.81;100.00;99617.00;5055341;28;20020;-60
2023/12/05 00:25:05;;;;;;;47.27;35.10;;;;;;;0.78;100.00;99614.25;5058422;28;20028;-60
2023/12/05 00:27:30;;;;;;;49.17;36.27;;;;;;;0.79;100.00;99608.38;5033105;28;20420;-60
2023/12/05 00:29:56;;;;;;;47.90;35.47;;;;;;;0.82;100.00;99611.09;5030175;28;20475;-60
2023/12/05 00:32:22;;;;;;;48.90;35.83;;;;;;;0.85;100.00;99616.34;5042902;28;20033;-60
2023/12/05 00:34:47;;;;;;;49.93;35.70;;;;;;;0.83;100.00;99610.28;5029936;28;20029;-61
2023/12/05 00:37:13;;;;;;;47.73;33.67;;;;;;;0.86;100.00;99609.56;5043261;28;20461;-59
2023/12/05 00:39:38;;;;;;;48.50;35.73;;;;;;;0.86;100.00;99605.34;5030267;28;20057;-59
2023/12/05 00:42:04;;;;;;;49.07;35.77;;;;;;;0.87;100.00;99602.00;5038897;28;20030;-60
2023/12/05 00:44:29;;;;;;;52.47;36.27;;;;;;;0.86;100.00;99607.91;5056436;28;20028;-60
2023/12/05 00:46:54;;;;;;;51.03;35.40;;;;;;;0.86;100.00;99601.91;5044696;28;20121;-59
2023/12/05 00:49:19;;;;;;;50.73;35.77;;;;;;;0.86;100.00;99599.38;5029934;28;20040;-60
2023/12/05 00:51:45;;;;;;;50.63;36.13;;;;;;;0.88;100.00;99598.63;5042781;28;20036;-61
2023/12/05 00:54:10;;;;;;;51.20;35.33;;;;;;;0.89;100.00;99595.28;5046619;28;20024;-60
2023/12/05 00:56:36;;;;;;;49.60;35.83;;;;;;;0.93;100.00;99609.97;5047398;28;20029;-60
2023/12/05 00:59:01;;;;;;;52.07;36.67;;;;;;;0.92;100.00;99609.88;5047801;28;20025;-59
2023/12/05 01:01:27;;;;;;;51.67;35.20;;;;;;;0.93;100.00;99607.41;5029802;28;20052;-60
2023/12/05 01:03:52;;;;;;;47.73;35.33;;;;;;;0.98;100.00;99609.31;5038378;28;20036;-60
2023/12/05 01:06:18;;;;;;;50.83;36.03;;;;;;;0.97;100.00;99610.13;5043221;28;20096;-60
2023/12/05 01:08:43;;;;;;;50.17;37.30;;;;;;;1.01;100.00;99607.78;5041093;28;20021;-59
2023/12/05 01:11:10;;;;;;;47.47;35.57;;;;;;;1.02;100.00;99598.47;5046715;28;20036;-60
2023/12/05 01:13:35;;;;;;;48.57;35.87;;;;;;;1.02;100.00;99593.38;5040493;28;20107;-60
2023/12/05 01:16:03;;;;;;;52.43;38.53;;;;;;;1.01;100.00;99594.19;5034056;28;20075;-60
2023/12/05 01:18:28;;;;;;;55.43;37.20;;;;;;;1.01;100.00;99594.19;5030079;28;20108;-60
2023/12/05 01:20:55;;;;;;;49.47;36.27;;;;;;;1.03;100.00;99592.56;5046370;28;20583;-60
2023/12/05 01:23:20;;;;;;;51.00;36.07;;;;;;;1.01;100.00;99594.19;5047875;28;20021;-60
2023/12/05 01:25:46;;;;;;;49.67;36.47;;;;;;;1.05;100.00;99585.84;5036743;28;20031;-60
2023/12/05 01:28:11;;;;;;;47.33;35.83;;;;;;;1.02;100.00;99584.03;5057054;28;20017;-59
2023/12/05 01:30:36;;;;;;;50.27;36.77;;;;;;;1.01;100.00;99583.97;5044801;28;20103;-60
2023/12/05 01:33:02;;;;;;;50.27;37.07;;;;;;;1.03;100.00;99582.34;5028925;28;20032;-60
2023/12/05 01:35:27;;;;;;;50.40;36.93;;;;;;;1.06;100.00;99580.84;5059053;28;21427;-60
2023/12/05 01:37:53;;;;;;;51.23;37.37;;;;;;;1.06;100.00;99577.41;5063490;28;20035;-59
2023/12/05 01:40:18;;;;;;;53.10;39.23;;;;;;;1.06;100.00;99585.06;5047978;28;20021;-60
2023/12/05 01:42:43;;;;;;;52.67;37.43;;;;;;;1.08;100.00;99578.34;5046628;28;20017;-59
2023/12/05 01:45:09;;;;;;;51.23;36.20;;;;;;;1.08;100.00;99581.78;5047249;28;20497;-60
2023/12/05 01:47:35;;;;;;;47.87;36.13;;;;;;;1.11;100.00;99587.84;5047514;28;20239;-60
2023/12/05 01:50:03;;;;;;;50.17;36.80;;;;;;;1.08;100.00;99581.78;5047220;28;20120;-60
2023/12/05 01:52:30;;;;;;;51.43;37.50;;;;;;;1.11;100.00;99590.41;5047638;28;20040;-59
2023/12/05 01:54:56;;;;;;;55.53;37.80;;;;;;;1.12;100.00;99592.16;5051504;28;20427;-60
2023/12/05 01:57:23;;;;;;;47.97;35.10;;;;;;;1.16;100.00;99589.84;5055671;28;20016;-60
2023/12/05 01:59:50;;;;;;;53.80;36.97;;;;;;;1.15;100.00;99593.16;5033219;28;20036;-60
2023/12/05 02:02:16;;;;;;;56.00;38.50;;;;;;;1.14;100.00;99595.66;5058807;28;20017;-59
2023/12/05 02:04:42;;;;;;;48.13;34.77;;;;;;;1.15;100.00;99594.88;5046867;28;20492;-61
2023/12/05 02:07:08;;;;;;;53.77;36.40;;;;;;;1.14;100.00;99595.66;5047982;28;20025;-60
2023/12/05 02:09:35;;;;;;;54.43;38.80;;;;;;;1.16;100.00;99602.59;5044990;28;20024;-60
2023/12/05 02:12:01;;;;;;;50.13;37.07;;;;;;;1.17;100.00;99606.03;5047465;28;20112;-61
2023/12/05 02:14:26;;;;;;;50.20;36.43;;;;;;;1.16;100.00;99601.72;5047089;28;20104;-60
2023/12/05 02:17:15;;;;;;;51.27;37.10;;;;;;;1.17;100.00;99601.78;5045980;28;20025;-60
2023/12/05 02:20:00;;;;;;;56.47;38.33;;;;;;;1.17;100.00;99604.34;5047296;28;20120;-61
2023/12/05 02:22:39;;;;;;;53.87;38.33;;;;;;;1.19;100.00;99604.41;5042522;28;20461;-60
2023/12/05 02:25:15;;;;;;;50.73;36.50;;;;;;;1.19;100.00;99602.75;5046505;28;20535;-59
2023/12/05 02:27:41;;;;;;;54.67;37.83;;;;;;;1.22;100.00;99599.47;5047084;28;20037;-60
2023/12/05 02:30:09;;;;;;;47.57;37.10;;;;;;;1.23;100.00;99602.88;5035224;28;20477;-59
2023/12/05 02:32:35;;;;;;;50.33;37.13;;;;;;;1.24;100.00;99602.09;5034152;28;20037;-60
2023/12/05 02:35:00;;;;;;;53.07;37.47;;;;;;;1.25;100.00;99598.75;5063000;28;20456;-60
2023/12/05 02:37:43;;;;;;;57.23;38.70;;;;;;;1.24;100.00;99595.31;5050558;28;20073;-60
2023/12/05 02:40:19;;;;;;;56.63;38.67;;;;;;;1.27;100.00;99597.16;5052093;28;20056;-60
2023/12/05 02:42:47;;;;;;;55.20;37.53;;;;;;;1.28;100.00;99591.22;5050058;28;20070;-61
2023/12/05 02:45:18;;;;;;;57.20;39.37;;;;;;;1.26;100.00;99591.16;5051387;28;20052;-60
2023/12/05 02:47:47;;;;;;;55.25;38.25;;;;;;;1.29;100.00;99587.91;5049347;28;20400;-60
2023/12/05 02:50:13;;;;;;;53.80;38.77;;;;;;;1.37;100.00;99584.03;5050374;28;20087;-61
2023/12/05 02:52:38;;;;;;;56.97;40.63;;;;;;;1.33;100.00;99584.69;5052578;28;20017;-60
2023/12/05 02:55:04;;;;;;;50.67;38.87;;;;;;;1.33;100.00;99582.16;5049749;28;20024;-60
2023/12/05 02:57:29;;;;;;;56.40;39.13;;;;;;;1.34;100.00;99588.09;5050966;28;20033;-59
2023/12/05 02:59:54;;;;;;;54.07;37.87;;;;;;;1.33;100.00;99579.59;5033138;28;20075;-60
2023/12/05 03:02:19;;;;;;;51.97;37.43;;;;;;;1.33;100.00;99577.03;5031585;28;20032;-60
2023/12/05 03:04:45;;;;;;;54.93;39.30;;;;;;;1.33;100.00;99582.16;5042410;28;20020;-60
2023/12/05 03:07:10;;;;;;;52.83;37.93;;;;;;;1.34;100.00;99586.44;5057584;28;20021;-59
2023/12/05 03:09:35;;;;;;;53.97;38.17;;;;;;;1.34;100.00;99573.69;5044198;28;20041;-61
2023/12/05 03:12:01;;;;;;;57.83;39.73;;;;;;;1.34;100.00;99571.13;5043492;28;20021;-60
2023/12/05 03:14:26;;;;;;;50.17;36.17;;;;;;;1.38;100.00;99574.72;5049337;28;20064;-60
2023/12/05 03:16:51;;;;;;;54.57;39.23;;;;;;;1.37;100.00;99566.16;5045443;28;20401;-60
2023/12/05 03:19:16;;;;;;;56.67;39.07;;;;;;;1.39;100.00;99566.22;5048440;28;20033;-61
2023/12/05 03:21:42;;;;;;;55.13;39.07;;;;;;;1.38;100.00;99565.38;5046907;28;20107;-60
2023/12/05 03:24:07;;;;;;;58.90;40.37;;;;;;;1.40;100.00;99563.75;5046856;28;20033;-59
2023/12/05 03:26:32;;;;;;;60.40;40.47;;;;;;;1.39;100.00;99558.56;5040326;28;20033;-60
2023/12/05 03:28:58;;;;;;;54.97;37.60;;;;;;;1.44;100.00;99567.31;5039912;28;20012;-60
2023/12/05 03:31:23;;;;;;;60.27;41.60;;;;;;;1.42;100.00;99566.41;5059682;28;20293;-60
2023/12/05 03:33:48;;;;;;;54.63;39.37;;;;;;;1.42;100.00;99569.81;5049670;28;20036;-60
2023/12/05 03:36:14;;;;;;;55.03;39.30;;;;;;;1.43;100.00;99568.16;5049915;28;20373;-60
2023/12/05 03:38:39;;;;;;;56.33;39.17;;;;;;;1.45;100.00;99571.66;5046122;28;20108;-60
2023/12/05 03:41:06;;;;;;;52.90;38.40;;;;;;;1.44;100.00;99573.31;5039814;28;20086;-60
2023/12/05 03:43:31;;;;;;;56.03;39.27;;;;;;;1.46;100.00;99572.53;5036183;28;20029;-60
2023/12/05 03:45:57;;;;;;;57.93;40.80;;;;;;;1.44;100.00;99572.44;5039561;28;20053;-60
2023/12/05 03:48:22;;;;;;;54.37;37.50;;;;;;;1.47;100.00;99580.28;5059748;28;20078;-60
2023/12/05 03:50:47;;;;;;;55.17;39.13;;;;;;;1.49;100.00;99585.44;5039445;28;20040;-60
2023/12/05 03:53:12;;;;;;;54.57;39.03;;;;;;;1.48;100.00;99583.69;5045527;28;20029;-60
2023/12/05 03:55:38;;;;;;;58.40;38.90;;;;;;;1.48;100.00;99587.13;5040919;28;20032;-60
2023/12/05 03:58:04;;;;;;;59.17;39.20;;;;;;;1.49;100.00;99588.00;5044443;28;20108;-60
2023/12/05 04:00:29;;;;;;;56.40;40.00;;;;;;;1.50;100.00;99579.53;5030886;28;20033;-60
2023/12/05 04:02:55;;;;;;;54.37;37.20;;;;;;;1.50;100.00;99585.50;5048555;28;20584;-60
2023/12/05 04:05:20;;;;;;;59.03;40.00;;;;;;;1.53;100.00;99589.91;5049006;28;20041;-60
2023/12/05 04:07:45;;;;;;;58.07;40.90;;;;;;;1.52;100.00;99594.13;5032911;28;20460;-60
2023/12/05 04:10:11;;;;;;;56.07;38.83;;;;;;;1.53;100.00;99592.47;5031203;28;20028;-59
2023/12/05 04:12:39;;;;;;;57.07;38.53;;;;;;;1.53;100.00;99600.97;5035657;28;20084;-60
2023/12/05 04:15:05;;;;;;;55.93;39.90;;;;;;;1.54;100.00;99606.97;5042185;28;20033;-61
2023/12/05 04:17:30;;;;;;;57.00;39.80;;;;;;;1.53;100.00;99611.19;5061395;28;20055;-60
2023/12/05 04:19:55;;;;;;;57.77;39.80;;;;;;;1.55;100.00;99608.72;5035894;28;20116;-59
2023/12/05 04:22:21;;;;;;;58.67;40.43;;;;;;;1.55;100.00;99609.59;5043868;28;20070;-61
2023/12/05 04:24:46;;;;;;;58.93;39.90;;;;;;;1.56;100.00;99613.03;5049255;28;20472;-60
2023/12/05 04:27:11;;;;;;;57.40;40.07;;;;;;;1.57;100.00;99617.31;5050733;28;20070;-60
2023/12/05 04:29:37;;;;;;;58.17;40.47;;;;;;;1.58;100.00;99614.00;5052178;28;20033;-61
2023/12/05 04:32:02;;;;;;;58.47;40.50;;;;;;;1.59;100.00;99610.63;5057327;28;20377;-60
2023/12/05 04:34:28;;;;;;;55.37;38.50;;;;;;;1.61;100.00;99614.13;5049275;28;20104;-59
2023/12/05 04:36:53;;;;;;;54.83;38.63;;;;;;;1.62;100.00;99615.03;5047181;28;20029;-59
2023/12/05 04:39:19;;;;;;;60.10;40.90;;;;;;;1.61;100.00;99614.13;5049151;28;20028;-59
2023/12/05 04:41:44;;;;;;;56.07;39.13;;;;;;;1.62;100.00;99620.13;5048313;28;20025;-60
2023/12/05 04:44:09;;;;;;;56.13;38.67;;;;;;;1.62;100.00;99620.97;5049264;28;20246;-61
2023/12/05 04:46:38;;;;;;;54.80;40.10;;;;;;;1.62;100.00;99620.97;5049313;28;20061;-59
2023/12/05 04:49:04;;;;;;;59.50;39.50;;;;;;;1.64;100.00;99624.50;5049068;28;20477;-60
2023/12/05 04:51:30;;;;;;;58.37;40.53;;;;;;;1.64;100.00;99624.50;5048194;28;20106;-60
2023/12/05 04:53:55;;;;;;;57.47;38.47;;;;;;;1.65;100.00;99626.25;5048557;28;20051;-59
2023/12/05 04:56:20;;;;;;;56.10;39.33;;;;;;;1.66;100.00;99633.09;5057753;28;20461;-61
2023/12/05 04:58:46;;;;;;;54.70;40.53;;;;;;;1.66;100.00;99633.09;5028942;28;20079;-60
2023/12/05 05:01:11;;;;;;;51.73;37.03;;;;;;;1.66;100.00;99630.56;5053613;28;20031;-61
2023/12/05 05:03:36;;;;;;;56.70;39.33;;;;;;;1.67;100.00;99632.28;5029067;28;20120;-60
2023/12/05 05:06:02;;;;;;;56.60;38.80;;;;;;;1.67;100.00;99642.50;5054219;28;20670;-60
2023/12/05 05:08:27;;;;;;;56.63;40.50;;;;;;;1.68;100.00;99639.19;5028996;28;20034;-59
2023/12/05 05:10:52;;;;;;;61.10;39.63;;;;;;;1.68;100.00;99639.19;5043916;28;20385;-59
2023/12/05 05:13:18;;;;;;;55.87;38.17;;;;;;;1.70;100.00;99638.34;5047888;28;20025;-60
2023/12/05 05:15:43;;;;;;;55.40;38.87;;;;;;;1.70;100.00;99643.47;5040750;28;20500;-60
2023/12/05 05:18:08;;;;;;;54.43;38.20;;;;;;;1.70;100.00;99646.03;5054102;28;20036;-59
2023/12/05 05:20:33;;;;;;;56.73;37.87;;;;;;;1.70;100.00;99638.34;5053530;28;20032;-60
2023/12/05 05:22:59;;;;;;;54.80;38.13;;;;;;;1.71;100.00;99642.69;5045441;28;20038;-61
2023/12/05 05:25:24;;;;;;;53.37;37.13;;;;;;;1.72;100.00;99654.66;5034142;28;20017;-60
2023/12/05 05:27:49;;;;;;;55.30;37.57;;;;;;;1.72;100.00;99644.44;5039678;28;20226;-60
2023/12/05 05:30:14;;;;;;;55.40;37.97;;;;;;;1.72;100.00;99646.97;5049831;28;20400;-60
2023/12/05 05:32:40;;;;;;;53.50;36.60;;;;;;;1.73;100.00;99653.81;5053977;28;20040;-60
2023/12/05 05:35:05;;;;;;;53.73;35.97;;;;;;;1.73;100.00;99654.72;5044602;28;20083;-60
2023/12/05 05:37:31;;;;;;;57.13;37.90;;;;;;;1.74;100.00;99660.72;5049645;28;20407;-60
2023/12/05 05:39:56;;;;;;;51.47;35.90;;;;;;;1.74;100.00;99656.50;5050149;28;20035;-60
2023/12/05 05:42:21;;;;;;;54.90;36.33;;;;;;;1.75;100.00;99652.22;5059391;28;20025;-59
2023/12/05 05:44:46;;;;;;;53.77;36.77;;;;;;;1.74;100.00;99650.50;5047759;28;20405;-60
2023/12/05 05:47:12;;;;;;;54.37;36.63;;;;;;;1.76;100.00;99654.00;5042530;28;20060;-59
2023/12/05 05:49:38;;;;;;;52.10;36.80;;;;;;;1.77;100.00;99660.84;5051864;28;20544;-60
2023/12/05 05:52:03;;;;;;;58.17;37.03;;;;;;;1.77;100.00;99665.97;5050040;28;20127;-60
2023/12/05 05:54:29;;;;;;;52.87;35.97;;;;;;;1.77;100.00;99665.97;5044820;28;20112;-60
2023/12/05 05:56:54;;;;;;;55.37;35.50;;;;;;;1.77;100.00;99660.84;5047763;28;20033;-61
2023/12/05 05:59:19;;;;;;;53.67;35.07;;;;;;;1.78;100.00;99666.03;5043149;28;20492;-60
2023/12/05 06:01:47;;;;;;;55.50;35.93;;;;;;;1.78;100.00;99670.28;5047842;28;20060;-60
2023/12/05 06:04:12;;;;;;;55.40;36.73;;;;;;;1.78;100.00;99663.47;5057944;28;20057;-60
2023/12/05 06:06:37;;;;;;;55.27;37.23;;;;;;;1.79;100.00;99665.25;5063455;28;20205;-60
2023/12/05 06:09:04;;;;;;;52.77;35.43;;;;;;;1.80;100.00;99668.66;5046226;28;20104;-61
2023/12/05 06:11:29;;;;;;;52.03;35.87;;;;;;;1.81;100.00;99667.88;5049115;28;20408;-61
2023/12/05 06:13:54;;;;;;;58.43;36.37;;;;;;;1.83;100.00;99670.50;5050675;28;20298;-60
2023/12/05 06:16:19;;;;;;;56.33;36.33;;;;;;;1.83;100.00;99671.38;5055612;28;20043;-60
2023/12/05 06:18:45;;;;;;;54.57;36.17;;;;;;;1.84;100.00;99669.69;5045467;28;20048;-58
2023/12/05 06:21:10;;;;;;;53.17;36.20;;;;;;;1.84;100.00;99674.78;5046381;28;20107;-59
2023/12/05 06:23:35;;;;;;;54.83;35.03;;;;;;;1.85;100.00;99668.91;5038085;28;20098;-59
2023/12/05 06:26:02;;;;;;;58.43;37.37;;;;;;;1.85;100.00;99672.34;5046672;28;20385;-60
2023/12/05 06:28:28;;;;;;;58.30;37.00;;;;;;;1.88;100.00;99681.81;5038506;28;20029;-60
2023/12/05 06:30:53;;;;;;;56.67;35.80;;;;;;;1.88;100.00;99680.16;5037982;28;20029;-60
2023/12/05 06:33:19;;;;;;;64.40;38.13;;;;;;;1.88;100.00;99680.16;5055716;28;20116;-60
2023/12/05 06:35:44;;;;;;;58.00;35.77;;;;;;;1.90;100.00;99690.44;5040494;28;20078;-60
2023/12/05 06:38:09;;;;;;;57.17;36.43;;;;;;;1.90;100.00;99687.88;5043276;28;20032;-59
2023/12/05 06:40:34;;;;;;;63.83;38.00;;;;;;;1.90;100.00;99693.00;5041484;28;20026;-59
2023/12/05 06:43:00;;;;;;;59.27;36.17;;;;;;;1.89;100.00;99692.09;5048372;28;20124;-60
2023/12/05 06:45:25;;;;;;;59.27;36.90;;;;;;;1.91;100.00;99705.84;5046334;28;20041;-60
2023/12/05 06:47:50;;;;;;;59.43;35.40;;;;;;;1.93;100.00;99703.34;5046576;28;20029;-61
2023/12/05 06:50:15;;;;;;;56.70;35.40;;;;;;;1.93;100.00;99700.81;5043152;28;20036;-61
2023/12/05 06:52:41;;;;;;;60.90;35.77;;;;;;;1.94;100.00;99710.25;5046787;28;20072;-60
2023/12/05 06:55:07;;;;;;;59.27;35.37;;;;;;;1.94;100.00;99715.34;5041058;28;20651;-60
2023/12/05 06:57:33;;;;;;;57.43;34.73;;;;;;;1.96;100.00;99717.97;5039820;28;20020;-60
2023/12/05 06:59:58;;;;;;;50.00;31.93;;;;;;;1.96;100.00;99723.09;5045595;28;20108;-60
2023/12/05 07:02:23;;;;;;;54.70;33.37;;;;;;;1.96;100.00;99728.19;5049366;28;20112;-60
2023/12/05 07:04:49;;;;;;;58.83;34.27;;;;;;;1.96;100.00;99725.66;5050006;28;20447;-60
2023/12/05 07:07:15;;;;;;;58.13;35.27;;;;;;;1.96;100.00;99730.75;5047290;28;20047;-60
2023/12/05 07:09:40;;;;;;;57.37;34.03;;;;;;;1.93;100.00;99728.91;5062141;28;20035;-61
2023/12/05 07:12:06;;;;;;;57.33;34.20;;;;;;;1.94;100.00;99734.91;5052249;28;20423;-59
2023/12/05 07:14:34;;;;;;;56.50;34.50;;;;;;;1.94;100.00;99745.13;5052957;28;20013;-59
2023/12/05 07:17:00;;;;;;;56.77;33.37;;;;;;;1.94;100.00;99748.56;5046367;28;20095;-60
2023/12/05 07:19:25;;;;;;;57.23;34.03;;;;;;;1.93;100.00;99749.34;5041809;28;20029;-60
2023/12/05 07:21:50;;;;;;;55.23;32.63;;;;;;;1.94;100.00;99755.34;5051269;28;20021;-60
2023/12/05 07:24:15;;;;;;;55.70;33.47;;;;;;;1.92;100.00;99755.28;5043800;28;20029;-61
2023/12/05 07:26:41;;;;;;;53.43;32.93;;;;;;;1.92;100.00;99762.94;5043922;28;20029;-61
2023/12/05 07:29:06;;;;;;;56.10;33.87;;;;;;;1.91;100.00;99762.06;5046417;28;20021;-60
2023/12/05 07:31:32;;;;;;;58.00;35.40;;;;;;;1.91;100.00;99756.06;5052593;28;20111;-60
2023/12/05 07:33:57;;;;;;;55.43;33.30;;;;;;;1.90;100.00;99759.44;5046880;28;20264;-62
2023/12/05 07:36:24;;;;;;;55.13;34.77;;;;;;;1.88;100.00;99761.91;5046990;28;20025;-60
2023/12/05 07:38:49;;;;;;;61.17;33.40;;;;;;;1.87;100.00;99770.38;5047454;28;20328;-60
2023/12/05 07:41:22;;;;;;;55.97;32.33;;;;;;;1.86;100.00;99768.63;5048960;28;20029;-61
2023/12/05 07:43:49;;;;;;;56.90;33.57;;;;;;;1.86;100.00;99771.19;5046755;28;20070;-61
2023/12/05 07:46:15;;;;;;;56.13;33.07;;;;;;;1.85;100.00;99777.09;5045769;28;20581;-61
2023/12/05 07:48:41;;;;;;;57.07;34.50;;;;;;;1.85;100.00;99781.31;5051899;28;20448;-61
2023/12/05 07:51:06;;;;;;;54.57;34.53;;;;;;;1.83;100.00;99788.03;5068329;28;20036;-61
2023/12/05 07:53:32;;;;;;;56.30;34.30;;;;;;;1.82;100.00;99792.25;5036582;28;20511;-61
2023/12/05 07:55:57;;;;;;;58.37;34.40;;;;;;;1.82;100.00;99801.63;5048281;28;20025;-61
2023/12/05 07:58:22;;;;;;;56.93;33.03;;;;;;;1.80;100.00;99797.28;5054413;28;20530;-61
2023/12/05 08:00:48;;;;;;;58.43;34.30;;;;;;;1.81;100.00;99805.84;5042308;28;20108;-60
2023/12/05 08:03:14;;;;;;;60.13;32.33;;;;;;;1.82;100.00;99811.84;5041119;28;20021;-60
2023/12/05 08:05:40;;;;;;;56.47;32.43;;;;;;;1.82;100.00;99812.69;5054440;28;20098;-59
2023/12/05 08:08:05;;;;;;;57.37;33.70;;;;;;;1.81;100.00;99816.06;5054147;28;20123;-61
2023/12/05 08:10:30;;;;;;;58.80;36.10;;;;;;;1.81;100.00;99816.06;5042513;28;20533;-60
2023/12/05 08:12:56;;;;;;;57.70;33.43;;;;;;;1.81;100.00;99826.28;5052778;28;20086;-61
2023/12/05 08:15:21;;;;;;;59.40;34.00;;;;;;;1.80;100.00;99832.16;5045880;28;20040;-60
2023/12/05 08:17:47;;;;;;;57.67;34.10;;;;;;;1.79;100.00;99830.44;5039540;28;20025;-61
2023/12/05 08:20:13;;;;;;;56.43;33.50;;;;;;;1.79;100.00;99825.31;5047472;28;20036;-60
2023/12/05 08:22:38;;;;;;;62.20;35.57;;;;;;;1.79;100.00;99838.09;5046348;28;20022;-60
2023/12/05 08:25:07;;;;;;;61.60;34.27;;;;;;;1.78;100.00;99838.91;5029994;28;20152;-61
2023/12/05 08:27:33;;;;;;;59.57;35.33;;;;;;;1.79;100.00;99840.66;5030534;28;20053;-60
2023/12/05 08:29:59;;;;;;;62.37;37.37;;;;;;;1.79;100.00;99843.19;5035225;28;20025;-60
2023/12/05 08:32:24;;;;;;;58.37;36.03;;;;;;;1.79;100.00;99843.19;5058057;28;20079;-60
2023/12/05 08:34:49;;;;;;;60.20;36.00;;;;;;;1.78;100.00;99857.66;5048542;28;20036;-60
2023/12/05 08:37:14;;;;;;;65.57;36.20;;;;;;;1.78;100.00;99851.69;5048541;28;20024;-60
2023/12/05 08:39:40;;;;;;;59.73;37.57;;;;;;;1.78;100.00;99861.91;5048443;28;20067;-60
2023/12/05 08:42:05;;;;;;;64.60;38.13;;;;;;;1.75;100.00;99860.03;5048058;28;20508;-61
2023/12/05 08:44:31;;;;;;;66.80;36.63;;;;;;;1.75;100.00;99857.50;5048351;28;20101;-60
2023/12/05 08:46:57;;;;;;;60.90;36.67;;;;;;;1.75;100.00;99869.38;5048372;28;20079;-60
2023/12/05 08:49:22;;;;;;;61.63;36.67;;;;;;;1.74;100.00;99863.41;5046626;28;20087;-62
2023/12/05 08:51:47;;;;;;;61.77;36.87;;;;;;;1.72;100.00;99861.56;5048178;28;20021;-60
2023/12/05 08:54:13;;;;;;;66.47;37.23;;;;;;;1.71;100.00;99867.47;5047363;28;20424;-61
2023/12/05 08:56:39;;;;;;;59.97;36.23;;;;;;;1.70;100.00;99874.25;5046524;28;20386;-60
2023/12/05 08:59:04;;;;;;;62.07;37.50;;;;;;;1.69;100.00;99872.53;5038569;28;20036;-61
2023/12/05 09:01:30;;;;;;;66.33;38.10;;;;;;;1.68;100.00;99874.19;5061334;28;20494;-59
2023/12/05 09:03:55;;;;;;;62.63;37.97;;;;;;;1.68;100.00;99871.63;5045126;28;20237;-61
2023/12/05 09:06:20;;;;;;;64.80;35.90;;;;;;;1.70;100.00;99878.47;5055258;28;20397;-61
2023/12/05 09:08:45;;;;;;;66.40;37.10;;;;;;;1.71;100.00;99880.25;5039809;28;20041;-60
2023/12/05 09:11:14;;;;;;;63.47;36.60;;;;;;;1.71;100.00;99881.13;5031926;28;20025;-59
2023/12/05 09:13:39;;;;;;;64.27;37.50;;;;;;;1.73;100.00;99884.63;5044250;28;20119;-61
2023/12/05 09:16:05;;;;;;;58.03;35.80;;;;;;;1.71;100.00;99891.34;5049229;28;20095;-61
2023/12/05 09:18:31;;;;;;;63.97;36.70;;;;;;;1.71;100.00;99895.59;5048643;28;20028;-60
2023/12/05 09:20:57;;;;;;;62.17;37.03;;;;;;;1.70;100.00;99891.25;5047602;28;20021;-61
2023/12/05 09:23:22;;;;;;;57.23;36.37;;;;;;;1.70;100.00;99896.38;5048182;28;20078;-60
2023/12/05 09:25:48;;;;;;;57.23;35.83;;;;;;;1.69;100.00;99903.16;5047785;28;20056;-60
2023/12/05 09:28:13;;;;;;;57.47;35.63;;;;;;;1.70;100.00;99904.03;5048332;28;20228;-60
2023/12/05 09:30:38;;;;;;;60.13;35.60;;;;;;;1.68;100.00;99906.50;5047365;28;20020;-59
2023/12/05 09:33:04;;;;;;;62.53;36.17;;;;;;;1.68;100.00;99906.50;5048140;28;20035;-60
2023/12/05 09:35:29;;;;;;;62.50;36.67;;;;;;;1.69;100.00;99918.50;5059808;28;20661;-60
2023/12/05 09:37:56;;;;;;;64.73;37.70;;;;;;;1.69;100.00;99918.50;5037811;28;20044;-60
2023/12/05 09:40:21;;;;;;;58.63;35.20;;;;;;;1.70;100.00;99921.91;5057162;28;20029;-60
2023/12/05 09:42:48;;;;;;;59.60;34.40;;;;;;;1.71;100.00;99918.56;5047735;28;20163;-60
2023/12/05 09:45:15;;;;;;;58.40;33.70;;;;;;;1.72;100.00;99928.88;5031387;28;20452;-60
2023/12/05 09:47:55;;;;;;;58.40;34.63;;;;;;;1.72;100.00;99933.09;5038905;28;20132;-61
2023/12/05 09:50:21;;;;;;;57.77;33.10;;;;;;;1.73;100.00;99934.84;5041168;28;20028;-61
2023/12/05 09:52:46;;;;;;;56.50;32.80;;;;;;;1.74;100.00;99936.63;5053393;28;20051;-60
2023/12/05 09:55:12;;;;;;;62.37;34.60;;;;;;;1.74;100.00;99937.50;5047760;28;20111;-61
2023/12/05 09:57:38;;;;;;;60.30;33.13;;;;;;;1.75;100.00;99939.25;5047197;28;20032;-59
2023/12/05 10:00:04;;;;;;;57.43;33.87;;;;;;;1.74;100.00;99941.72;5047383;28;20025;-61
2023/12/05 10:02:30;;;;;;;55.73;34.10;;;;;;;1.74;100.00;99944.28;5034101;28;20021;-61
2023/12/05 10:05:00;;;;;;;60.43;34.13;;;;;;;1.77;100.00;99949.53;5034880;28;20104;-61
2023/12/05 10:07:27;;;;;;;63.73;35.10;;;;;;;1.78;100.00;99946.22;5046892;28;20377;-61
2023/12/05 10:09:53;;;;;;;61.87;36.23;;;;;;;1.79;100.00;99953.06;5028102;28;20029;-60
2023/12/05 10:12:18;;;;;;;65.27;37.10;;;;;;;1.82;100.00;99952.38;5040311;28;20013;-60
2023/12/05 10:14:45;;;;;;;59.67;35.77;;;;;;;1.82;100.00;99955.78;5038966;28;20020;-60
2023/12/05 10:17:11;;;;;;;62.13;36.17;;;;;;;1.83;100.00;99959.22;5057003;28;20067;-60
2023/12/05 10:19:36;;;;;;;60.47;37.70;;;;;;;1.84;100.00;99973.75;5054304;28;20337;-60
2023/12/05 10:22:02;;;;;;;59.70;35.90;;;;;;;1.83;100.00;99972.88;5048220;28;20116;-61
2023/12/05 10:24:43;;;;;;;61.33;37.13;;;;;;;1.84;100.00;99969.53;5045651;28;20032;-61
2023/12/05 10:27:09;;;;;;;61.53;35.30;;;;;;;1.86;100.00;99977.25;5058430;28;20024;-60
2023/12/05 10:29:38;;;;;;;64.93;36.53;;;;;;;1.88;100.00;99976.56;5066526;28;20541;-61
2023/12/05 10:32:03;;;;;;;62.13;35.33;;;;;;;1.87;100.00;99972.22;5051813;28;20117;-61
2023/12/05 10:34:28;;;;;;;65.40;36.23;;;;;;;1.88;100.00;99975.69;5065475;28;20091;-60
2023/12/05 10:37:02;;;;;;;61.87;35.43;;;;;;;1.88;100.00;99976.56;5062357;28;20036;-61
2023/12/05 10:39:35;;;;;;;66.60;35.47;;;;;;;1.88;100.00;99976.56;5045216;28;20028;-61
2023/12/05 10:42:00;;;;;;;59.67;36.20;;;;;;;1.89;100.00;99980.88;5059716;28;20017;-61
2023/12/05 10:44:25;;;;;;;64.60;34.37;;;;;;;1.89;100.00;99982.56;5056087;28;20047;-60
2023/12/05 10:46:56;;;;;;;61.33;33.63;;;;;;;1.90;100.00;99989.41;5062868;28;20481;-60
2023/12/05 10:49:22;;;;;;;56.90;33.60;;;;;;;1.90;100.00;99990.31;5045433;28;20029;-61
2023/12/05 10:51:47;;;;;;;55.00;32.13;;;;;;;1.91;100.00;99992.06;5052955;28;20103;-60
2023/12/05 10:54:13;;;;;;;50.67;31.70;;;;;;;1.92;100.00;99998.91;5041785;28;20051;-60
2023/12/05 10:56:38;;;;;;;55.67;31.67;;;;;;;1.94;100.00;99995.56;5050685;28;20473;-60
2023/12/05 10:59:05;;;;;;;49.00;29.43;;;;;;;1.94;100.00;100003.25;5051371;28;20302;-60
2023/12/05 11:01:33;;;;;;;45.97;28.77;;;;;;;1.95;100.00;100002.44;5050075;28;20024;-60
2023/12/05 11:04:02;;;;;;;47.53;27.97;;;;;;;1.95;100.00;100005.88;5051057;28;20032;-61
2023/12/05 11:06:28;;;;;;;46.20;28.87;;;;;;;1.95;100.00;100007.53;5037955;28;20024;-61
2023/12/05 11:08:53;;;;;;;44.57;27.20;;;;;;;1.96;100.00;100005.06;5050842;28;20020;-60
2023/12/05 11:11:20;;;;;;;42.77;25.40;;;;;;;1.96;100.00;100007.63;5037880;28;20317;-60